createdAt,value
2023-02-14T00:01:13.424Z,11.00
2023-02-14T00:03:40.997Z,9.25
2023-02-14T00:06:13.685Z,9.63
2023-02-14T00:08:44.611Z,10.88
2023-02-14T00:11:13.481Z,10.85
2023-02-14T00:14:00.728Z,9.77
2023-02-14T00:16:28.197Z,10.75
2023-02-14T00:19:04.243Z,9.88
2023-02-14T00:21:32.882Z,10.02
2023-02-14T00:23:59.990Z,10.50
2023-02-14T00:26:27.207Z,10.20
2023-02-14T00:28:54.542Z,10.80
2023-02-14T00:31:22.131Z,10.75
2023-02-14T00:33:49.360Z,10.10
2023-02-14T00:36:19.449Z,11.60
2023-02-14T00:38:47.155Z,10.35
2023-02-14T00:41:19.314Z,10.70
2023-02-14T00:43:51.204Z,9.52
2023-02-14T00:46:20.297Z,9.93
2023-02-14T00:48:48.043Z,10.07
2023-02-14T00:51:15.528Z,11.10
2023-02-14T00:53:42.905Z,10.00
2023-02-14T00:56:10.311Z,9.55
2023-02-14T00:58:37.684Z,9.65
2023-02-14T01:01:05.325Z,10.43
2023-02-14T01:03:33.790Z,11.35
2023-02-14T01:06:01.629Z,10.70
2023-02-14T01:08:29.271Z,10.23
2023-02-14T01:10:56.546Z,11.32
2023-02-14T01:13:24.576Z,9.98
2023-02-14T01:15:53.056Z,9.60
2023-02-14T01:18:20.417Z,10.52
2023-02-14T01:20:47.919Z,10.00
2023-02-14T01:23:15.035Z,11.30
2023-02-14T01:25:42.216Z,11.73
2023-02-14T01:28:09.593Z,10.43
2023-02-14T01:30:37.532Z,10.13
2023-02-14T01:33:04.599Z,10.25
2023-02-14T01:35:31.981Z,10.95
2023-02-14T01:37:59.103Z,9.70
2023-02-14T01:40:26.300Z,10.18
2023-02-14T01:42:53.763Z,10.05
2023-02-14T01:45:25.524Z,9.52
2023-02-14T01:47:56.667Z,9.98
2023-02-14T01:50:31.474Z,9.10
2023-02-14T01:53:05.201Z,10.77
2023-02-14T01:55:39.875Z,10.07
2023-02-14T01:58:12.203Z,10.38
2023-02-14T02:00:59.912Z,9.60
2023-02-14T02:03:34.318Z,9.10
2023-02-14T02:06:21.615Z,9.52
2023-02-14T02:09:07.657Z,9.38
2023-02-14T02:11:35.611Z,9.35
2023-02-14T02:14:04.827Z,10.55
2023-02-14T02:16:41.210Z,9.68
2023-02-14T02:19:46.145Z,10.82
2023-02-14T02:22:28.688Z,10.00
2023-02-14T02:24:55.731Z,9.88
2023-02-14T02:28:00.908Z,9.13
2023-02-14T02:30:37.287Z,10.15
2023-02-14T02:33:19.504Z,9.57
2023-02-14T02:36:09.804Z,9.70
2023-02-14T02:38:55.458Z,9.35
2023-02-14T02:41:41.951Z,9.82
2023-02-14T02:44:27.305Z,8.98
2023-02-14T02:47:10.713Z,9.65
2023-02-14T02:50:13.541Z,9.88
2023-02-14T02:53:05.894Z,10.15
2023-02-14T02:56:15.979Z,8.85
2023-02-14T02:58:52.933Z,10.68
2023-02-14T03:01:24.299Z,9.90
2023-02-14T03:04:17.752Z,9.80
2023-02-14T03:06:46.490Z,9.80
2023-02-14T03:09:41.997Z,11.45
2023-02-14T03:12:29.008Z,10.10
2023-02-14T03:15:14.479Z,9.43
2023-02-14T03:18:50.740Z,11.23
2023-02-14T03:22:05.823Z,10.80
2023-02-14T03:25:27.617Z,10.45
2023-02-14T03:28:19.470Z,11.23
2023-02-14T03:31:09.127Z,11.27
2023-02-14T03:33:51.492Z,11.13
2023-02-14T03:36:27.741Z,10.35
2023-02-14T03:39:12.109Z,10.73
2023-02-14T03:41:47.450Z,11.23
2023-02-14T03:44:20.543Z,10.90
2023-02-14T03:46:59.363Z,11.77
2023-02-14T03:49:32.119Z,11.95
2023-02-14T03:52:04.534Z,11.73
2023-02-14T03:54:35.780Z,10.93
2023-02-14T03:57:29.160Z,11.07
2023-02-14T03:59:57.544Z,11.10
2023-02-14T04:02:37.000Z,10.57
2023-02-14T04:05:12.746Z,10.02
2023-02-14T04:07:51.406Z,9.93
2023-02-14T04:10:20.215Z,10.80
2023-02-14T04:12:47.805Z,10.10
2023-02-14T04:15:16.719Z,11.45
2023-02-14T04:18:02.506Z,9.52
2023-02-14T04:20:30.631Z,10.05
2023-02-14T04:22:58.122Z,9.75
2023-02-14T04:25:25.619Z,10.68
2023-02-14T04:27:52.953Z,10.15
2023-02-14T04:30:22.038Z,11.20
2023-02-14T04:32:50.371Z,12.00
2023-02-14T04:35:17.613Z,10.27
2023-02-14T04:37:46.067Z,10.23
2023-02-14T04:40:17.383Z,9.93
2023-02-14T04:42:45.744Z,9.55
2023-02-14T04:45:12.555Z,10.13
2023-02-14T04:47:40.107Z,9.60
2023-02-14T04:50:08.175Z,11.52
2023-02-14T04:52:35.362Z,10.13
2023-02-14T04:55:02.851Z,10.45
2023-02-14T04:57:29.775Z,10.15
2023-02-14T04:59:56.656Z,10.07
2023-02-14T05:02:24.382Z,10.80
2023-02-14T05:04:51.721Z,10.13
2023-02-14T05:07:18.880Z,11.02
2023-02-14T05:09:46.027Z,9.50
2023-02-14T05:12:13.442Z,9.48
2023-02-14T05:14:40.911Z,9.90
2023-02-14T05:17:08.121Z,11.48
2023-02-14T05:19:35.355Z,10.55
2023-02-14T05:22:02.694Z,10.45
2023-02-14T05:24:30.034Z,10.52
2023-02-14T05:26:57.233Z,11.07
2023-02-14T05:29:24.420Z,12.13
2023-02-14T05:31:51.864Z,10.25
2023-02-14T05:34:19.774Z,10.63
2023-02-14T05:36:47.347Z,10.50
2023-02-14T05:39:15.245Z,10.88
2023-02-14T05:41:42.782Z,9.57
2023-02-14T05:44:10.052Z,10.73
2023-02-14T05:46:37.599Z,11.73
2023-02-14T05:49:04.879Z,10.90
2023-02-14T05:51:32.152Z,11.50
2023-02-14T05:54:00.240Z,11.73
2023-02-14T05:56:27.297Z,10.00
2023-02-14T05:58:54.471Z,11.85
2023-02-14T06:01:21.794Z,10.48
2023-02-14T06:03:49.119Z,10.35
2023-02-14T06:06:16.348Z,11.05
2023-02-14T06:08:43.502Z,10.38
2023-02-14T06:11:10.622Z,11.20
2023-02-14T06:13:37.657Z,10.40
2023-02-14T06:16:05.326Z,11.10
2023-02-14T06:18:32.485Z,10.18
2023-02-14T06:21:00.025Z,11.77
2023-02-14T06:23:27.440Z,9.60
2023-02-14T06:25:54.787Z,10.90
2023-02-14T06:28:22.230Z,11.80
2023-02-14T06:30:49.632Z,10.38
2023-02-14T06:33:17.026Z,11.15
2023-02-14T06:35:44.607Z,10.57
2023-02-14T06:38:11.425Z,11.52
2023-02-14T06:40:38.594Z,10.25
2023-02-14T06:43:05.554Z,10.60
2023-02-14T06:45:32.647Z,10.43
2023-02-14T06:48:00.649Z,12.27
2023-02-14T06:50:27.792Z,11.32
2023-02-14T06:52:54.874Z,10.75
2023-02-14T06:55:22.416Z,10.40
2023-02-14T06:57:49.621Z,10.68
2023-02-14T07:00:17.516Z,10.70
2023-02-14T07:02:44.877Z,10.63
2023-02-14T07:05:12.088Z,11.23
2023-02-14T07:07:39.148Z,11.63
2023-02-14T07:10:07.009Z,11.18
2023-02-14T07:12:35.525Z,11.13
2023-02-14T07:15:02.741Z,11.95
2023-02-14T07:17:30.022Z,11.35
2023-02-14T07:19:57.169Z,11.48
2023-02-14T07:22:24.415Z,12.13
2023-02-14T07:24:51.941Z,14.70
2023-02-14T07:27:19.442Z,11.98
2023-02-14T07:29:47.260Z,10.15
2023-02-14T07:32:14.497Z,10.85
2023-02-14T07:34:41.857Z,11.05
2023-02-14T07:37:08.996Z,15.40
2023-02-14T07:39:36.144Z,11.75
2023-02-14T07:42:03.249Z,12.27
2023-02-14T07:44:30.523Z,11.50
2023-02-14T07:46:57.713Z,11.93
2023-02-14T07:49:24.934Z,13.68
2023-02-14T07:51:52.111Z,11.10
2023-02-14T07:54:20.297Z,11.63
2023-02-14T07:56:47.581Z,11.05
2023-02-14T07:59:14.811Z,10.07
2023-02-14T08:01:42.385Z,11.35
2023-02-14T08:04:10.110Z,12.07
2023-02-14T08:06:37.561Z,11.38
2023-02-14T08:09:05.066Z,10.57
2023-02-14T08:11:50.859Z,10.77
2023-02-14T08:14:18.171Z,12.90
2023-02-14T08:16:45.421Z,11.32
2023-02-14T08:19:12.526Z,11.77
2023-02-14T08:21:39.833Z,12.43
2023-02-14T08:24:07.176Z,11.65
2023-02-14T08:26:34.618Z,10.18
2023-02-14T08:29:02.596Z,10.48
2023-02-14T08:31:36.299Z,10.80
2023-02-14T08:34:06.483Z,11.70
2023-02-14T08:36:34.679Z,11.40
2023-02-14T08:39:03.347Z,10.63
2023-02-14T08:41:30.581Z,11.38
2023-02-14T08:43:57.865Z,12.85
2023-02-14T08:46:25.486Z,10.10
2023-02-14T08:48:53.574Z,9.68
2023-02-14T08:51:20.896Z,9.68
2023-02-14T08:53:51.269Z,9.38
2023-02-14T08:56:19.327Z,12.73
2023-02-14T08:58:46.601Z,9.30
2023-02-14T09:01:17.310Z,10.30
2023-02-14T09:03:45.252Z,9.40
2023-02-14T09:06:17.794Z,10.38
2023-02-14T09:08:46.033Z,9.52
2023-02-14T09:11:18.843Z,8.65
2023-02-14T09:13:46.994Z,7.13
2023-02-14T09:16:20.028Z,10.05
2023-02-14T09:18:48.462Z,9.90
2023-02-14T09:21:19.226Z,9.65
2023-02-14T09:23:46.658Z,10.75
2023-02-14T09:26:16.811Z,10.05
2023-02-14T09:28:44.914Z,10.73
2023-02-14T09:31:18.857Z,10.52
2023-02-14T09:34:06.353Z,11.30
2023-02-14T09:36:52.704Z,9.43
2023-02-14T09:39:19.850Z,10.05
2023-02-14T09:42:21.257Z,10.43
2023-02-14T09:44:55.664Z,10.63
2023-02-14T09:47:48.392Z,10.43
2023-02-14T09:50:34.993Z,9.68
2023-02-14T09:53:08.794Z,11.23
2023-02-14T09:58:22.098Z,8.93
2023-02-14T10:01:24.045Z,10.48
2023-02-14T10:04:12.801Z,10.93
2023-02-14T10:07:18.546Z,9.27
2023-02-14T10:10:04.024Z,9.70
2023-02-14T10:12:57.483Z,9.73
2023-02-14T10:15:32.702Z,9.50
2023-02-14T10:18:13.976Z,9.05
2023-02-14T10:20:46.620Z,10.52
2023-02-14T10:23:32.751Z,8.98
2023-02-14T10:26:16.753Z,8.50
2023-02-14T10:28:52.442Z,10.02
2023-02-14T10:31:56.243Z,10.18
2023-02-14T10:34:46.254Z,9.48
2023-02-14T10:37:23.039Z,9.82
2023-02-14T10:39:50.326Z,10.55
2023-02-14T10:42:23.480Z,10.68
2023-02-14T10:45:16.313Z,11.35
2023-02-14T10:48:00.472Z,11.18
2023-02-14T10:50:39.606Z,10.65
2023-02-14T10:53:26.312Z,9.43
2023-02-14T10:56:08.182Z,9.85
2023-02-14T10:58:39.259Z,8.55
2023-02-14T11:01:12.752Z,10.93
2023-02-14T11:03:44.308Z,10.18
2023-02-14T11:06:12.210Z,9.70
2023-02-14T11:08:41.523Z,9.18
2023-02-14T11:11:15.899Z,10.50
2023-02-14T11:13:43.694Z,8.70
2023-02-14T11:16:13.838Z,9.18
2023-02-14T11:18:42.018Z,8.02
2023-02-14T11:21:12.937Z,8.10
2023-02-14T11:23:43.425Z,8.32
2023-02-14T11:26:26.976Z,9.27
2023-02-14T11:28:59.124Z,9.80
2023-02-14T11:31:45.024Z,9.30
2023-02-14T11:34:46.424Z,9.63
2023-02-14T11:37:38.962Z,8.75
2023-02-14T11:40:07.297Z,9.15
2023-02-14T11:42:37.793Z,8.27
2023-02-14T11:45:06.398Z,9.13
2023-02-14T11:47:41.673Z,8.52
2023-02-14T11:50:25.235Z,9.77
2023-02-14T11:52:56.059Z,9.35
2023-02-14T11:55:35.499Z,8.77
2023-02-14T11:58:05.769Z,8.43
2023-02-14T12:00:34.091Z,8.05
2023-02-14T12:03:06.977Z,8.85
2023-02-14T12:05:57.514Z,8.52
2023-02-14T12:08:27.404Z,7.10
2023-02-14T12:11:06.608Z,9.00
2023-02-14T12:13:34.098Z,7.80
2023-02-14T12:16:01.540Z,8.75
2023-02-14T12:18:51.784Z,8.73
2023-02-14T12:21:31.298Z,9.00
2023-02-14T12:24:26.971Z,9.20
2023-02-14T12:27:13.243Z,8.95
2023-02-14T12:29:58.769Z,8.05
2023-02-14T12:32:28.832Z,8.20
2023-02-14T12:35:22.116Z,8.00
2023-02-14T12:38:20.741Z,8.98
2023-02-14T12:41:23.311Z,8.45
2023-02-14T12:44:06.073Z,8.60
2023-02-14T12:47:02.847Z,9.05
2023-02-14T12:49:54.725Z,9.20
2023-02-14T12:52:46.573Z,9.25
2023-02-14T12:55:45.652Z,9.43
2023-02-14T12:58:43.268Z,9.32
2023-02-14T13:01:48.725Z,9.38
2023-02-14T13:04:27.756Z,8.90
2023-02-14T13:07:05.132Z,9.20
2023-02-14T13:09:59.204Z,9.93
2023-02-14T13:12:33.048Z,9.90
2023-02-14T13:18:03.886Z,10.27
2023-02-14T13:20:40.086Z,10.35
2023-02-14T13:23:15.750Z,9.70
2023-02-14T13:26:01.866Z,10.50
2023-02-14T13:28:31.684Z,11.00
2023-02-14T13:31:00.284Z,12.02
2023-02-14T13:33:33.929Z,11.60
2023-02-14T13:36:06.520Z,10.90
2023-02-14T13:38:38.888Z,10.98
2023-02-14T13:41:08.853Z,11.52
2023-02-14T13:43:56.830Z,11.05
2023-02-14T13:46:35.827Z,10.20
2023-02-14T13:49:27.590Z,10.90
2023-02-14T13:51:57.954Z,11.10
2023-02-14T13:54:43.101Z,11.15
2023-02-14T13:57:31.838Z,10.80
2023-02-14T14:00:17.150Z,12.20
2023-02-14T14:02:47.130Z,10.48
2023-02-14T14:05:43.331Z,11.65
2023-02-14T14:08:25.552Z,10.40
2023-02-14T14:10:57.396Z,10.40
2023-02-14T14:13:43.101Z,10.60
2023-02-14T14:16:28.831Z,10.43
2023-02-14T14:19:24.987Z,11.50
2023-02-14T14:22:14.722Z,11.50
2023-02-14T14:24:53.961Z,10.90
2023-02-14T14:27:32.562Z,12.35
2023-02-14T14:30:03.506Z,11.27
2023-02-14T14:32:32.376Z,11.52
2023-02-14T14:35:08.876Z,11.77
2023-02-14T14:37:40.801Z,11.90
2023-02-14T14:40:19.245Z,11.57
2023-02-14T14:42:49.040Z,12.13
2023-02-14T14:45:24.766Z,12.05
2023-02-14T14:47:54.564Z,11.48
2023-02-14T14:50:36.347Z,11.23
2023-02-14T14:53:07.350Z,11.98
2023-02-14T14:55:38.457Z,12.13
2023-02-14T14:58:10.903Z,12.15
2023-02-14T15:00:42.844Z,13.10
2023-02-14T15:03:13.518Z,13.38
2023-02-14T15:05:47.342Z,12.57
2023-02-14T15:10:42.393Z,13.43
2023-02-14T15:13:33.243Z,12.18
2023-02-14T15:16:03.796Z,13.68
2023-02-14T15:18:31.154Z,13.43
2023-02-14T15:20:59.807Z,14.50
2023-02-14T15:23:27.102Z,13.98
2023-02-14T15:25:54.466Z,13.40
2023-02-14T15:28:35.704Z,13.27
2023-02-14T15:31:06.325Z,14.55
2023-02-14T15:33:34.635Z,14.27
2023-02-14T15:36:08.853Z,13.48
2023-02-14T15:38:39.540Z,13.30
2023-02-14T15:41:08.101Z,15.30
2023-02-14T15:43:37.862Z,13.88
2023-02-14T15:46:24.442Z,16.05
2023-02-14T15:48:52.842Z,13.60
2023-02-14T15:51:23.968Z,13.93
2023-02-14T15:54:03.253Z,16.10
2023-02-14T15:56:43.719Z,15.55
2023-02-14T15:59:20.929Z,14.48
2023-02-14T16:01:55.291Z,15.15
2023-02-14T16:04:26.531Z,14.68
2023-02-14T16:07:24.622Z,15.05
2023-02-14T16:10:20.906Z,15.25
2023-02-14T16:13:07.082Z,15.07
2023-02-14T16:15:37.124Z,16.85
2023-02-14T16:18:17.344Z,15.80
2023-02-14T16:20:47.439Z,16.48
2023-02-14T16:23:18.554Z,15.80
2023-02-14T16:25:47.035Z,16.42
2023-02-14T16:28:14.744Z,16.90
2023-02-14T16:30:43.296Z,16.63
2023-02-14T16:33:22.733Z,17.05
2023-02-14T16:35:50.906Z,16.38
2023-02-14T16:38:20.361Z,17.17
2023-02-14T16:40:50.311Z,19.17
2023-02-14T16:43:19.874Z,19.40
2023-02-14T16:45:47.709Z,17.63
2023-02-14T16:48:16.449Z,17.00
2023-02-14T16:50:45.146Z,18.05
2023-02-14T16:53:30.221Z,18.20
2023-02-14T16:55:58.786Z,19.75
2023-02-14T16:58:32.984Z,18.98
2023-02-14T17:01:00.768Z,19.05
2023-02-14T17:03:28.723Z,18.92
2023-02-14T17:05:58.506Z,18.77
2023-02-14T17:08:26.706Z,18.52
2023-02-14T17:10:56.938Z,19.77
2023-02-14T17:13:28.262Z,19.67
2023-02-14T17:15:56.838Z,19.20
2023-02-14T17:18:25.817Z,18.67
2023-02-14T17:20:53.250Z,19.65
2023-02-14T17:23:21.527Z,19.48
2023-02-14T17:25:48.648Z,17.02
2023-02-14T17:28:15.769Z,16.63
2023-02-14T17:30:43.233Z,18.98
2023-02-14T17:33:10.594Z,18.60
2023-02-14T17:35:38.440Z,17.02
2023-02-14T17:38:05.291Z,19.27
2023-02-14T17:40:32.810Z,16.95
2023-02-14T17:43:01.458Z,17.13
2023-02-14T17:45:28.712Z,18.33
2023-02-14T17:47:55.927Z,17.08
2023-02-14T17:50:22.594Z,18.52
2023-02-14T17:52:54.419Z,17.65
2023-02-14T17:55:21.366Z,17.70
2023-02-14T17:57:53.058Z,17.40
2023-02-14T18:00:24.291Z,18.42
2023-02-14T18:02:51.756Z,18.13
2023-02-14T18:05:18.569Z,18.08
2023-02-14T18:07:45.838Z,18.38
2023-02-14T18:10:13.171Z,19.33
2023-02-14T18:12:40.405Z,17.67
2023-02-14T18:15:07.910Z,18.45
2023-02-14T18:17:34.569Z,18.98
2023-02-14T18:20:01.629Z,19.75
2023-02-14T18:22:28.960Z,19.42
2023-02-14T18:24:59.139Z,20.17
2023-02-14T18:27:27.081Z,17.67
2023-02-14T18:29:54.115Z,18.40
2023-02-14T18:32:21.304Z,18.85
2023-02-14T18:34:48.626Z,19.27
2023-02-14T18:37:15.258Z,18.95
2023-02-14T18:39:42.675Z,19.83
2023-02-14T18:42:10.078Z,19.88
2023-02-14T18:44:38.768Z,19.83
2023-02-14T18:47:07.219Z,19.10
2023-02-14T18:49:34.918Z,20.27
2023-02-14T18:52:02.003Z,19.15
2023-02-14T18:54:30.339Z,22.35
2023-02-14T18:56:57.880Z,21.55
2023-02-14T18:59:24.997Z,21.52
2023-02-14T19:01:52.698Z,20.05
2023-02-14T19:04:20.135Z,21.55
2023-02-14T19:06:47.216Z,21.70
2023-02-14T19:09:17.316Z,23.02
2023-02-14T19:11:45.310Z,20.00
2023-02-14T19:14:13.861Z,22.00
2023-02-14T19:16:51.344Z,20.80
2023-02-14T19:19:19.257Z,20.38
2023-02-14T19:21:46.906Z,21.23
2023-02-14T19:24:16.749Z,19.70
2023-02-14T19:26:44.723Z,20.48
2023-02-14T19:29:15.279Z,21.33
2023-02-14T19:31:46.373Z,19.48
2023-02-14T19:34:28.014Z,20.25
2023-02-14T19:36:58.900Z,20.00
2023-02-14T19:39:29.915Z,20.05
2023-02-14T19:41:57.527Z,20.42
2023-02-14T19:44:26.534Z,19.13
2023-02-14T19:46:57.091Z,20.20
2023-02-14T19:49:24.591Z,20.35
2023-02-14T19:51:51.926Z,20.83
2023-02-14T19:54:19.229Z,21.23
2023-02-14T19:56:48.569Z,20.67
2023-02-14T19:59:21.512Z,19.40
2023-02-14T20:01:54.362Z,20.85
2023-02-14T20:04:25.762Z,20.50
2023-02-14T20:06:54.058Z,19.73
2023-02-14T20:09:23.622Z,20.55
2023-02-14T20:11:58.251Z,20.98
2023-02-14T20:14:28.549Z,21.40
2023-02-14T20:16:58.537Z,21.85
2023-02-14T20:19:28.264Z,19.73
2023-02-14T20:21:56.316Z,20.67
2023-02-14T20:24:31.723Z,20.98
2023-02-14T20:27:01.204Z,20.63
2023-02-14T20:29:29.095Z,20.35
2023-02-14T20:32:04.163Z,22.40
2023-02-14T20:34:31.612Z,20.63
2023-02-14T20:36:59.517Z,20.50
2023-02-14T20:39:34.518Z,21.20
2023-02-14T20:42:01.593Z,21.40
2023-02-14T20:44:29.306Z,20.15
2023-02-14T20:46:58.282Z,21.83
2023-02-14T20:49:27.707Z,20.98
2023-02-14T20:51:55.303Z,21.05
2023-02-14T20:54:26.037Z,19.98
2023-02-14T20:56:54.068Z,22.10
2023-02-14T20:59:29.269Z,20.98
2023-02-14T21:01:59.967Z,21.83
2023-02-14T21:04:28.312Z,22.65
2023-02-14T21:06:58.151Z,21.30
2023-02-14T21:09:25.475Z,20.77
2023-02-14T21:11:54.232Z,24.05
2023-02-14T21:14:21.795Z,21.23
2023-02-14T21:16:48.895Z,22.10
2023-02-14T21:19:16.119Z,21.42
2023-02-14T21:21:43.614Z,22.20
2023-02-14T21:24:13.621Z,21.83
2023-02-14T21:26:41.891Z,20.67
2023-02-14T21:29:09.679Z,21.15
2023-02-14T21:31:38.249Z,22.17
2023-02-14T21:34:06.200Z,22.35
2023-02-14T21:36:38.172Z,22.27
2023-02-14T21:39:06.823Z,22.33
2023-02-14T21:41:35.642Z,21.90
2023-02-14T21:44:04.123Z,22.60
2023-02-14T21:46:38.458Z,24.20
2023-02-14T21:49:25.702Z,21.90
2023-02-14T21:51:52.985Z,21.88
2023-02-14T21:54:20.654Z,21.65
2023-02-14T21:56:50.179Z,20.67
2023-02-14T21:59:17.831Z,21.05
2023-02-14T22:01:44.494Z,20.85
2023-02-14T22:04:13.196Z,21.52
2023-02-14T22:06:42.839Z,20.00
2023-02-14T22:09:12.759Z,21.13
2023-02-14T22:11:40.687Z,21.52
2023-02-14T22:14:08.394Z,22.58
2023-02-14T22:16:37.374Z,21.63
2023-02-14T22:19:05.860Z,22.50
2023-02-14T22:21:34.006Z,21.63
2023-02-14T22:24:02.115Z,20.70
2023-02-14T22:26:34.031Z,21.88
2023-02-14T22:29:03.012Z,19.98
2023-02-14T22:31:34.454Z,19.60
2023-02-14T22:34:01.754Z,19.00
2023-02-14T22:36:29.056Z,20.42
2023-02-14T22:38:56.340Z,21.52
2023-02-14T22:41:25.157Z,21.00
2023-02-14T22:43:54.034Z,22.48
2023-02-14T22:46:24.654Z,21.83
2023-02-14T22:48:53.842Z,22.63
2023-02-14T22:51:21.390Z,21.08
2023-02-14T22:53:49.143Z,21.27
2023-02-14T22:56:17.846Z,21.77
2023-02-14T22:58:45.688Z,20.55
2023-02-14T23:01:14.814Z,19.73
2023-02-14T23:03:42.070Z,22.13
2023-02-14T23:06:10.013Z,20.48
2023-02-14T23:08:45.693Z,20.70
2023-02-14T23:11:19.717Z,19.52
2023-02-14T23:14:05.444Z,20.92
2023-02-14T23:16:51.589Z,21.75
2023-02-14T23:19:43.340Z,21.88
2023-02-14T23:22:13.819Z,20.40
2023-02-14T23:24:41.301Z,22.95
2023-02-14T23:27:09.961Z,21.05
2023-02-14T23:29:38.126Z,21.23
2023-02-14T23:32:07.363Z,22.77
2023-02-14T23:34:37.380Z,20.85
2023-02-14T23:37:05.305Z,21.38
2023-02-14T23:39:36.199Z,21.15
2023-02-14T23:42:04.757Z,22.67
2023-02-14T23:44:33.875Z,20.05
2023-02-14T23:47:04.668Z,20.35
2023-02-14T23:49:35.281Z,22.25
2023-02-14T23:52:07.293Z,18.50
2023-02-14T23:54:35.316Z,22.07
2023-02-14T23:57:03.953Z,20.05
2023-02-14T23:59:31.390Z,20.73
